sensor_id;sensor_type;location;lat;lon;timestamp;P1;durP1;ratioP1;P2;durP2;ratioP2
78824;SDS011;68176;45.554;10.220;2024-03-08T00:00:41;2.90;;;1.88;;
78824;SDS011;68176;45.554;10.220;2024-03-08T00:03:11;3.80;;;1.65;;
78824;SDS011;68176;45.554;10.220;2024-03-08T00:05:41;2.67;;;1.75;;
78824;SDS011;68176;45.554;10.220;2024-03-08T00:08:11;2.85;;;1.80;;
78824;SDS011;68176;45.554;10.220;2024-03-08T00:10:41;3.35;;;1.80;;
78824;SDS011;68176;45.554;10.220;2024-03-08T00:13:11;4.82;;;1.92;;
78824;SDS011;68176;45.554;10.220;2024-03-08T00:15:41;3.58;;;2.08;;
78824;SDS011;68176;45.554;10.220;2024-03-08T00:18:11;3.00;;;2.38;;
78824;SDS011;68176;45.554;10.220;2024-03-08T00:20:41;2.95;;;1.52;;
78824;SDS011;68176;45.554;10.220;2024-03-08T00:23:11;3.25;;;1.90;;
78824;SDS011;68176;45.554;10.220;2024-03-08T00:28:11;3.03;;;1.83;;
78824;SDS011;68176;45.554;10.220;2024-03-08T00:30:41;3.28;;;1.92;;
78824;SDS011;68176;45.554;10.220;2024-03-08T00:33:11;3.10;;;1.90;;
78824;SDS011;68176;45.554;10.220;2024-03-08T00:35:41;3.05;;;2.22;;
78824;SDS011;68176;45.554;10.220;2024-03-08T00:38:11;4.15;;;2.03;;
78824;SDS011;68176;45.554;10.220;2024-03-08T00:40:41;3.03;;;1.90;;
78824;SDS011;68176;45.554;10.220;2024-03-08T00:43:11;4.22;;;1.95;;
78824;SDS011;68176;45.554;10.220;2024-03-08T00:45:41;2.95;;;2.00;;
78824;SDS011;68176;45.554;10.220;2024-03-08T00:48:11;4.03;;;2.30;;
78824;SDS011;68176;45.554;10.220;2024-03-08T00:50:41;2.58;;;1.77;;
78824;SDS011;68176;45.554;10.220;2024-03-08T00:53:11;3.72;;;1.90;;
78824;SDS011;68176;45.554;10.220;2024-03-08T00:55:41;2.80;;;2.13;;
78824;SDS011;68176;45.554;10.220;2024-03-08T00:58:12;3.97;;;2.17;;
78824;SDS011;68176;45.554;10.220;2024-03-08T01:00:41;3.15;;;1.75;;
78824;SDS011;68176;45.554;10.220;2024-03-08T01:03:11;4.32;;;1.98;;
78824;SDS011;68176;45.554;10.220;2024-03-08T01:05:41;3.15;;;1.90;;
78824;SDS011;68176;45.554;10.220;2024-03-08T01:08:11;3.78;;;2.28;;
78824;SDS011;68176;45.554;10.220;2024-03-08T01:10:41;3.03;;;1.92;;
78824;SDS011;68176;45.554;10.220;2024-03-08T01:13:12;3.25;;;1.83;;
78824;SDS011;68176;45.554;10.220;2024-03-08T01:15:41;3.20;;;1.90;;
78824;SDS011;68176;45.554;10.220;2024-03-08T01:18:11;3.08;;;2.13;;
78824;SDS011;68176;45.554;10.220;2024-03-08T01:20:41;3.15;;;2.00;;
78824;SDS011;68176;45.554;10.220;2024-03-08T01:25:41;4.03;;;2.20;;
78824;SDS011;68176;45.554;10.220;2024-03-08T01:28:11;3.55;;;2.10;;
78824;SDS011;68176;45.554;10.220;2024-03-08T01:30:41;2.50;;;1.73;;
78824;SDS011;68176;45.554;10.220;2024-03-08T01:33:11;2.83;;;1.63;;
78824;SDS011;68176;45.554;10.220;2024-03-08T01:35:41;3.05;;;1.85;;
78824;SDS011;68176;45.554;10.220;2024-03-08T01:38:11;3.92;;;2.15;;
78824;SDS011;68176;45.554;10.220;2024-03-08T01:40:41;3.53;;;2.13;;
78824;SDS011;68176;45.554;10.220;2024-03-08T01:43:25;3.25;;;2.22;;
78824;SDS011;68176;45.554;10.220;2024-03-08T01:45:55;2.97;;;1.83;;
78824;SDS011;68176;45.554;10.220;2024-03-08T01:48:22;4.15;;;1.95;;
78824;SDS011;68176;45.554;10.220;2024-03-08T01:50:49;1.85;;;1.15;;
78824;SDS011;68176;45.554;10.220;2024-03-08T01:53:18;3.65;;;2.30;;
78824;SDS011;68176;45.554;10.220;2024-03-08T01:55:48;3.53;;;2.03;;
78824;SDS011;68176;45.554;10.220;2024-03-08T01:58:18;3.25;;;2.22;;
78824;SDS011;68176;45.554;10.220;2024-03-08T02:00:48;3.50;;;2.30;;
78824;SDS011;68176;45.554;10.220;2024-03-08T02:03:18;2.70;;;2.00;;
78824;SDS011;68176;45.554;10.220;2024-03-08T02:05:48;3.35;;;1.85;;
78824;SDS011;68176;45.554;10.220;2024-03-08T02:08:18;3.08;;;1.90;;
78824;SDS011;68176;45.554;10.220;2024-03-08T02:10:48;2.47;;;1.80;;
78824;SDS011;68176;45.554;10.220;2024-03-08T02:13:18;3.63;;;2.60;;
78824;SDS011;68176;45.554;10.220;2024-03-08T02:15:58;2.80;;;1.63;;
78824;SDS011;68176;45.554;10.220;2024-03-08T02:18:25;4.33;;;2.80;;
78824;SDS011;68176;45.554;10.220;2024-03-08T02:23:23;2.20;;;1.47;;
78824;SDS011;68176;45.554;10.220;2024-03-08T02:25:52;2.50;;;1.40;;
78824;SDS011;68176;45.554;10.220;2024-03-08T02:28:19;4.60;;;2.40;;
78824;SDS011;68176;45.554;10.220;2024-03-08T02:30:49;3.42;;;1.75;;
78824;SDS011;68176;45.554;10.220;2024-03-08T02:33:21;1.60;;;1.30;;
78824;SDS011;68176;45.554;10.220;2024-03-08T02:35:49;4.32;;;2.72;;
78824;SDS011;68176;45.554;10.220;2024-03-08T02:38:20;2.92;;;1.77;;
78824;SDS011;68176;45.554;10.220;2024-03-08T02:40:49;3.42;;;2.10;;
78824;SDS011;68176;45.554;10.220;2024-03-08T02:43:20;3.20;;;1.55;;
78824;SDS011;68176;45.554;10.220;2024-03-08T02:45:49;3.47;;;2.00;;
78824;SDS011;68176;45.554;10.220;2024-03-08T02:48:19;3.47;;;2.92;;
78824;SDS011;68176;45.554;10.220;2024-03-08T02:50:49;3.30;;;2.05;;
78824;SDS011;68176;45.554;10.220;2024-03-08T02:53:19;3.85;;;2.38;;
78824;SDS011;68176;45.554;10.220;2024-03-08T02:58:19;3.33;;;1.92;;
78824;SDS011;68176;45.554;10.220;2024-03-08T03:00:49;3.55;;;1.67;;
78824;SDS011;68176;45.554;10.220;2024-03-08T03:03:19;3.58;;;2.03;;
78824;SDS011;68176;45.554;10.220;2024-03-08T03:05:49;2.78;;;1.73;;
78824;SDS011;68176;45.554;10.220;2024-03-08T03:08:19;4.75;;;2.38;;
78824;SDS011;68176;45.554;10.220;2024-03-08T03:10:49;3.28;;;1.77;;
78824;SDS011;68176;45.554;10.220;2024-03-08T03:13:19;4.65;;;2.40;;
78824;SDS011;68176;45.554;10.220;2024-03-08T03:15:49;3.88;;;2.10;;
78824;SDS011;68176;45.554;10.220;2024-03-08T03:18:19;2.83;;;2.08;;
78824;SDS011;68176;45.554;10.220;2024-03-08T03:20:49;2.95;;;2.45;;
78824;SDS011;68176;45.554;10.220;2024-03-08T03:23:19;3.58;;;2.22;;
78824;SDS011;68176;45.554;10.220;2024-03-08T03:25:49;2.38;;;1.50;;
78824;SDS011;68176;45.554;10.220;2024-03-08T03:28:19;3.33;;;2.10;;
78824;SDS011;68176;45.554;10.220;2024-03-08T03:30:49;4.40;;;2.00;;
78824;SDS011;68176;45.554;10.220;2024-03-08T03:33:19;3.28;;;1.83;;
78824;SDS011;68176;45.554;10.220;2024-03-08T03:35:49;4.70;;;2.70;;
78824;SDS011;68176;45.554;10.220;2024-03-08T03:38:19;3.85;;;2.10;;
78824;SDS011;68176;45.554;10.220;2024-03-08T03:40:49;2.15;;;1.58;;
78824;SDS011;68176;45.554;10.220;2024-03-08T03:43:19;3.88;;;2.28;;
78824;SDS011;68176;45.554;10.220;2024-03-08T03:45:49;3.05;;;1.63;;
78824;SDS011;68176;45.554;10.220;2024-03-08T03:48:19;3.53;;;2.33;;
78824;SDS011;68176;45.554;10.220;2024-03-08T03:53:19;3.45;;;2.25;;
78824;SDS011;68176;45.554;10.220;2024-03-08T03:55:49;3.47;;;2.03;;
78824;SDS011;68176;45.554;10.220;2024-03-08T03:58:19;3.33;;;2.13;;
78824;SDS011;68176;45.554;10.220;2024-03-08T04:00:49;2.72;;;2.28;;
78824;SDS011;68176;45.554;10.220;2024-03-08T04:03:19;3.10;;;1.92;;
78824;SDS011;68176;45.554;10.220;2024-03-08T04:05:49;2.92;;;1.98;;
78824;SDS011;68176;45.554;10.220;2024-03-08T04:08:19;2.95;;;1.75;;
78824;SDS011;68176;45.554;10.220;2024-03-08T04:10:50;3.63;;;2.25;;
78824;SDS011;68176;45.554;10.220;2024-03-08T04:13:19;3.50;;;2.05;;
78824;SDS011;68176;45.554;10.220;2024-03-08T04:15:49;3.42;;;1.58;;
78824;SDS011;68176;45.554;10.220;2024-03-08T04:18:19;2.92;;;1.73;;
78824;SDS011;68176;45.554;10.220;2024-03-08T04:20:49;2.88;;;1.52;;
78824;SDS011;68176;45.554;10.220;2024-03-08T04:23:19;2.63;;;1.40;;
78824;SDS011;68176;45.554;10.220;2024-03-08T04:25:49;3.30;;;2.13;;
78824;SDS011;68176;45.554;10.220;2024-03-08T04:28:19;2.10;;;1.30;;
78824;SDS011;68176;45.554;10.220;2024-03-08T04:30:50;3.08;;;1.77;;
78824;SDS011;68176;45.554;10.220;2024-03-08T04:33:20;3.10;;;1.73;;
78824;SDS011;68176;45.554;10.220;2024-03-08T04:35:49;3.40;;;1.88;;
78824;SDS011;68176;45.554;10.220;2024-03-08T04:38:19;2.78;;;1.63;;
78824;SDS011;68176;45.554;10.220;2024-03-08T04:43:20;3.72;;;2.28;;
78824;SDS011;68176;45.554;10.220;2024-03-08T04:45:49;2.65;;;1.80;;
78824;SDS011;68176;45.554;10.220;2024-03-08T04:48:20;2.70;;;1.70;;
78824;SDS011;68176;45.554;10.220;2024-03-08T04:50:50;3.33;;;1.80;;
78824;SDS011;68176;45.554;10.220;2024-03-08T04:53:20;2.40;;;1.40;;
78824;SDS011;68176;45.554;10.220;2024-03-08T04:55:50;3.15;;;2.10;;
78824;SDS011;68176;45.554;10.220;2024-03-08T04:58:20;2.88;;;1.75;;
78824;SDS011;68176;45.554;10.220;2024-03-08T05:00:50;2.90;;;1.88;;
78824;SDS011;68176;45.554;10.220;2024-03-08T05:03:20;3.85;;;2.30;;
78824;SDS011;68176;45.554;10.220;2024-03-08T05:05:49;3.05;;;1.70;;
78824;SDS011;68176;45.554;10.220;2024-03-08T05:08:20;2.78;;;1.65;;
78824;SDS011;68176;45.554;10.220;2024-03-08T05:10:50;2.65;;;1.70;;
78824;SDS011;68176;45.554;10.220;2024-03-08T05:13:20;2.90;;;1.50;;
78824;SDS011;68176;45.554;10.220;2024-03-08T05:15:50;2.85;;;1.45;;
78824;SDS011;68176;45.554;10.220;2024-03-08T05:18:20;2.90;;;1.67;;
78824;SDS011;68176;45.554;10.220;2024-03-08T05:20:50;2.88;;;1.70;;
78824;SDS011;68176;45.554;10.220;2024-03-08T05:23:20;2.85;;;1.58;;
78824;SDS011;68176;45.554;10.220;2024-03-08T05:25:50;3.90;;;1.63;;
78824;SDS011;68176;45.554;10.220;2024-03-08T05:28:20;2.78;;;1.65;;
78824;SDS011;68176;45.554;10.220;2024-03-08T05:33:20;2.95;;;1.75;;
78824;SDS011;68176;45.554;10.220;2024-03-08T05:35:50;3.58;;;2.10;;
78824;SDS011;68176;45.554;10.220;2024-03-08T05:38:20;3.60;;;1.88;;
78824;SDS011;68176;45.554;10.220;2024-03-08T05:40:50;3.28;;;1.70;;
78824;SDS011;68176;45.554;10.220;2024-03-08T05:43:20;3.33;;;2.10;;
78824;SDS011;68176;45.554;10.220;2024-03-08T05:45:50;2.78;;;1.85;;
78824;SDS011;68176;45.554;10.220;2024-03-08T05:48:20;4.00;;;1.90;;
78824;SDS011;68176;45.554;10.220;2024-03-08T05:50:50;3.35;;;1.75;;
78824;SDS011;68176;45.554;10.220;2024-03-08T05:53:20;2.80;;;1.77;;
78824;SDS011;68176;45.554;10.220;2024-03-08T05:55:50;2.97;;;1.77;;
78824;SDS011;68176;45.554;10.220;2024-03-08T05:58:20;2.17;;;1.52;;
78824;SDS011;68176;45.554;10.220;2024-03-08T06:00:50;2.40;;;1.42;;
78824;SDS011;68176;45.554;10.220;2024-03-08T06:03:22;2.72;;;1.73;;
78824;SDS011;68176;45.554;10.220;2024-03-08T06:05:50;4.10;;;2.35;;
78824;SDS011;68176;45.554;10.220;2024-03-08T06:08:20;2.70;;;1.75;;
78824;SDS011;68176;45.554;10.220;2024-03-08T06:10:50;3.15;;;2.00;;
78824;SDS011;68176;45.554;10.220;2024-03-08T06:13:20;2.75;;;1.85;;
78824;SDS011;68176;45.554;10.220;2024-03-08T06:15:50;2.75;;;1.50;;
78824;SDS011;68176;45.554;10.220;2024-03-08T06:18:20;2.88;;;1.95;;
78824;SDS011;68176;45.554;10.220;2024-03-08T06:20:50;2.60;;;1.90;;
78824;SDS011;68176;45.554;10.220;2024-03-08T06:25:50;3.47;;;1.77;;
78824;SDS011;68176;45.554;10.220;2024-03-08T06:30:50;2.92;;;2.20;;
78824;SDS011;68176;45.554;10.220;2024-03-08T06:33:20;3.22;;;1.80;;
78824;SDS011;68176;45.554;10.220;2024-03-08T06:35:50;2.75;;;1.67;;
78824;SDS011;68176;45.554;10.220;2024-03-08T06:38:20;2.25;;;1.55;;
78824;SDS011;68176;45.554;10.220;2024-03-08T06:40:50;2.10;;;1.50;;
78824;SDS011;68176;45.554;10.220;2024-03-08T06:43:20;3.22;;;1.80;;
78824;SDS011;68176;45.554;10.220;2024-03-08T06:45:50;2.40;;;1.92;;
78824;SDS011;68176;45.554;10.220;2024-03-08T06:48:20;3.40;;;1.58;;
78824;SDS011;68176;45.554;10.220;2024-03-08T06:50:50;3.03;;;1.77;;
78824;SDS011;68176;45.554;10.220;2024-03-08T06:53:20;2.90;;;1.73;;
78824;SDS011;68176;45.554;10.220;2024-03-08T06:55:50;3.65;;;1.90;;
78824;SDS011;68176;45.554;10.220;2024-03-08T06:58:20;2.92;;;1.65;;
78824;SDS011;68176;45.554;10.220;2024-03-08T07:00:50;2.97;;;1.50;;
78824;SDS011;68176;45.554;10.220;2024-03-08T07:03:20;2.97;;;2.05;;
78824;SDS011;68176;45.554;10.220;2024-03-08T07:05:50;10.00;;;6.50;;
78824;SDS011;68176;45.554;10.220;2024-03-08T07:08:20;13.45;;;5.97;;
78824;SDS011;68176;45.554;10.220;2024-03-08T07:10:50;11.25;;;4.78;;
78824;SDS011;68176;45.554;10.220;2024-03-08T07:13:20;7.53;;;5.30;;
78824;SDS011;68176;45.554;10.220;2024-03-08T07:15:50;5.20;;;4.07;;
78824;SDS011;68176;45.554;10.220;2024-03-08T07:18:23;7.03;;;4.88;;
78824;SDS011;68176;45.554;10.220;2024-03-08T07:20:55;5.85;;;3.90;;
78824;SDS011;68176;45.554;10.220;2024-03-08T07:23:20;8.80;;;3.70;;
78824;SDS011;68176;45.554;10.220;2024-03-08T07:26:04;7.70;;;4.63;;
78824;SDS011;68176;45.554;10.220;2024-03-08T07:28:30;6.10;;;2.90;;
78824;SDS011;68176;45.554;10.220;2024-03-08T07:30:58;6.82;;;4.57;;
78824;SDS011;68176;45.554;10.220;2024-03-08T07:33:38;8.20;;;5.18;;
78824;SDS011;68176;45.554;10.220;2024-03-08T07:36:03;4.20;;;2.80;;
78824;SDS011;68176;45.554;10.220;2024-03-08T07:38:32;7.38;;;4.25;;
78824;SDS011;68176;45.554;10.220;2024-03-08T07:41:02;8.43;;;5.15;;
78824;SDS011;68176;45.554;10.220;2024-03-08T07:43:32;7.50;;;4.22;;
78824;SDS011;68176;45.554;10.220;2024-03-08T07:46:02;10.93;;;4.25;;
78824;SDS011;68176;45.554;10.220;2024-03-08T07:48:32;9.00;;;4.70;;
78824;SDS011;68176;45.554;10.220;2024-03-08T07:51:02;7.07;;;3.97;;
78824;SDS011;68176;45.554;10.220;2024-03-08T07:53:32;8.98;;;4.20;;
78824;SDS011;68176;45.554;10.220;2024-03-08T07:56:02;5.63;;;3.55;;
78824;SDS011;68176;45.554;10.220;2024-03-08T07:58:32;7.43;;;4.10;;
78824;SDS011;68176;45.554;10.220;2024-03-08T08:01:02;6.00;;;4.10;;
78824;SDS011;68176;45.554;10.220;2024-03-08T08:03:32;6.18;;;4.18;;
78824;SDS011;68176;45.554;10.220;2024-03-08T08:06:02;6.72;;;3.85;;
78824;SDS011;68176;45.554;10.220;2024-03-08T08:08:32;5.63;;;3.80;;
78824;SDS011;68176;45.554;10.220;2024-03-08T08:11:02;6.80;;;4.25;;
78824;SDS011;68176;45.554;10.220;2024-03-08T08:13:32;8.05;;;4.32;;
78824;SDS011;68176;45.554;10.220;2024-03-08T08:16:02;7.18;;;4.07;;
78824;SDS011;68176;45.554;10.220;2024-03-08T08:18:32;5.93;;;4.13;;
78824;SDS011;68176;45.554;10.220;2024-03-08T08:21:02;5.80;;;3.63;;
78824;SDS011;68176;45.554;10.220;2024-03-08T08:23:32;6.57;;;4.18;;
78824;SDS011;68176;45.554;10.220;2024-03-08T08:26:02;6.15;;;3.97;;
78824;SDS011;68176;45.554;10.220;2024-03-08T08:28:32;6.72;;;4.47;;
78824;SDS011;68176;45.554;10.220;2024-03-08T08:33:32;5.95;;;3.00;;
78824;SDS011;68176;45.554;10.220;2024-03-08T08:36:02;5.55;;;3.70;;
78824;SDS011;68176;45.554;10.220;2024-03-08T08:38:32;5.53;;;3.45;;
78824;SDS011;68176;45.554;10.220;2024-03-08T08:41:02;5.82;;;3.88;;
78824;SDS011;68176;45.554;10.220;2024-03-08T08:43:32;6.45;;;4.22;;
78824;SDS011;68176;45.554;10.220;2024-03-08T08:46:02;5.60;;;3.95;;
78824;SDS011;68176;45.554;10.220;2024-03-08T08:48:32;4.72;;;3.13;;
78824;SDS011;68176;45.554;10.220;2024-03-08T08:51:02;5.20;;;3.40;;
78824;SDS011;68176;45.554;10.220;2024-03-08T08:53:32;5.63;;;3.72;;
78824;SDS011;68176;45.554;10.220;2024-03-08T08:56:02;6.55;;;3.47;;
78824;SDS011;68176;45.554;10.220;2024-03-08T09:01:02;4.82;;;2.63;;
78824;SDS011;68176;45.554;10.220;2024-03-08T09:06:06;5.80;;;3.47;;
78824;SDS011;68176;45.554;10.220;2024-03-08T09:08:37;4.10;;;2.40;;
78824;SDS011;68176;45.554;10.220;2024-03-08T09:11:03;5.85;;;3.40;;
78824;SDS011;68176;45.554;10.220;2024-03-08T09:13:32;4.75;;;3.28;;
78824;SDS011;68176;45.554;10.220;2024-03-08T09:16:02;4.60;;;3.17;;
78824;SDS011;68176;45.554;10.220;2024-03-08T09:18:32;4.75;;;3.28;;
78824;SDS011;68176;45.554;10.220;2024-03-08T09:21:02;6.38;;;3.45;;
78824;SDS011;68176;45.554;10.220;2024-03-08T09:23:32;7.78;;;4.00;;
78824;SDS011;68176;45.554;10.220;2024-03-08T09:28:32;4.57;;;2.55;;
78824;SDS011;68176;45.554;10.220;2024-03-08T09:31:02;5.13;;;2.97;;
78824;SDS011;68176;45.554;10.220;2024-03-08T09:36:02;4.95;;;2.97;;
78824;SDS011;68176;45.554;10.220;2024-03-08T09:38:33;6.30;;;3.25;;
78824;SDS011;68176;45.554;10.220;2024-03-08T09:41:02;4.03;;;2.53;;
78824;SDS011;68176;45.554;10.220;2024-03-08T09:43:32;5.53;;;3.30;;
78824;SDS011;68176;45.554;10.220;2024-03-08T09:46:03;3.85;;;2.58;;
78824;SDS011;68176;45.554;10.220;2024-03-08T09:48:32;4.63;;;3.17;;
78824;SDS011;68176;45.554;10.220;2024-03-08T09:51:03;3.58;;;2.75;;
78824;SDS011;68176;45.554;10.220;2024-03-08T09:53:33;5.00;;;3.38;;
78824;SDS011;68176;45.554;10.220;2024-03-08T09:56:02;4.55;;;2.78;;
78824;SDS011;68176;45.554;10.220;2024-03-08T09:58:32;4.07;;;3.00;;
78824;SDS011;68176;45.554;10.220;2024-03-08T10:01:03;4.85;;;2.85;;
78824;SDS011;68176;45.554;10.220;2024-03-08T10:03:32;4.90;;;3.20;;
78824;SDS011;68176;45.554;10.220;2024-03-08T10:06:02;4.35;;;2.55;;
78824;SDS011;68176;45.554;10.220;2024-03-08T10:08:32;5.68;;;3.13;;
78824;SDS011;68176;45.554;10.220;2024-03-08T10:11:02;3.83;;;2.70;;
78824;SDS011;68176;45.554;10.220;2024-03-08T10:13:33;5.22;;;3.05;;
78824;SDS011;68176;45.554;10.220;2024-03-08T10:16:02;4.50;;;2.75;;
78824;SDS011;68176;45.554;10.220;2024-03-08T10:18:32;4.43;;;3.42;;
78824;SDS011;68176;45.554;10.220;2024-03-08T10:21:06;5.32;;;3.13;;
78824;SDS011;68176;45.554;10.220;2024-03-08T10:23:35;3.00;;;1.60;;
78824;SDS011;68176;45.554;10.220;2024-03-08T10:26:09;4.20;;;2.63;;
78824;SDS011;68176;45.554;10.220;2024-03-08T10:28:36;3.90;;;2.20;;
78824;SDS011;68176;45.554;10.220;2024-03-08T10:31:02;3.65;;;1.95;;
78824;SDS011;68176;45.554;10.220;2024-03-08T10:33:33;4.57;;;3.13;;
78824;SDS011;68176;45.554;10.220;2024-03-08T10:36:02;9.48;;;4.00;;
78824;SDS011;68176;45.554;10.220;2024-03-08T10:38:33;6.35;;;2.58;;
78824;SDS011;68176;45.554;10.220;2024-03-08T10:41:03;7.88;;;3.25;;
78824;SDS011;68176;45.554;10.220;2024-03-08T10:43:36;5.20;;;3.28;;
78824;SDS011;68176;45.554;10.220;2024-03-08T10:46:21;3.40;;;2.63;;
78824;SDS011;68176;45.554;10.220;2024-03-08T10:49:00;4.10;;;2.47;;
78824;SDS011;68176;45.554;10.220;2024-03-08T10:51:29;4.55;;;3.50;;
78824;SDS011;68176;45.554;10.220;2024-03-08T10:53:56;2.10;;;1.00;;
78824;SDS011;68176;45.554;10.220;2024-03-08T10:56:24;3.95;;;2.47;;
78824;SDS011;68176;45.554;10.220;2024-03-08T10:58:54;4.28;;;2.47;;
78824;SDS011;68176;45.554;10.220;2024-03-08T11:01:24;5.60;;;3.35;;
78824;SDS011;68176;45.554;10.220;2024-03-08T11:03:54;5.22;;;3.63;;
78824;SDS011;68176;45.554;10.220;2024-03-08T11:06:41;6.70;;;3.45;;
78824;SDS011;68176;45.554;10.220;2024-03-08T11:09:08;3.65;;;2.42;;
78824;SDS011;68176;45.554;10.220;2024-03-08T11:11:52;4.80;;;2.63;;
78824;SDS011;68176;45.554;10.220;2024-03-08T11:14:51;1.40;;;1.00;;
78824;SDS011;68176;45.554;10.220;2024-03-08T11:17:13;5.72;;;3.05;;
78824;SDS011;68176;45.554;10.220;2024-03-08T11:19:45;3.60;;;2.10;;
78824;SDS011;68176;45.554;10.220;2024-03-08T11:22:22;4.13;;;2.87;;
78824;SDS011;68176;45.554;10.220;2024-03-08T11:24:52;3.50;;;2.53;;
78824;SDS011;68176;45.554;10.220;2024-03-08T11:27:18;2.90;;;1.80;;
78824;SDS011;68176;45.554;10.220;2024-03-08T11:29:58;2.80;;;1.80;;
78824;SDS011;68176;45.554;10.220;2024-03-08T11:32:36;4.90;;;3.55;;
78824;SDS011;68176;45.554;10.220;2024-03-08T11:35:06;2.40;;;1.95;;
78824;SDS011;68176;45.554;10.220;2024-03-08T11:37:35;4.55;;;3.50;;
78824;SDS011;68176;45.554;10.220;2024-03-08T11:40:01;2.20;;;1.70;;
78824;SDS011;68176;45.554;10.220;2024-03-08T11:42:30;3.90;;;1.98;;
78824;SDS011;68176;45.554;10.220;2024-03-08T11:45:00;5.40;;;2.67;;
78824;SDS011;68176;45.554;10.220;2024-03-08T11:47:30;4.18;;;2.80;;
78824;SDS011;68176;45.554;10.220;2024-03-08T11:50:00;4.95;;;2.78;;
78824;SDS011;68176;45.554;10.220;2024-03-08T11:52:30;4.25;;;2.58;;
78824;SDS011;68176;45.554;10.220;2024-03-08T11:55:00;4.30;;;3.17;;
78824;SDS011;68176;45.554;10.220;2024-03-08T11:57:30;6.38;;;2.75;;
78824;SDS011;68176;45.554;10.220;2024-03-08T12:00:00;5.18;;;2.55;;
78824;SDS011;68176;45.554;10.220;2024-03-08T12:02:32;3.00;;;1.40;;
78824;SDS011;68176;45.554;10.220;2024-03-08T12:05:01;2.95;;;1.90;;
78824;SDS011;68176;45.554;10.220;2024-03-08T12:07:30;4.70;;;2.85;;
78824;SDS011;68176;45.554;10.220;2024-03-08T12:10:19;4.57;;;3.47;;
78824;SDS011;68176;45.554;10.220;2024-03-08T12:12:47;5.82;;;3.15;;
78824;SDS011;68176;45.554;10.220;2024-03-08T12:15:15;2.80;;;1.75;;
78824;SDS011;68176;45.554;10.220;2024-03-08T12:17:43;2.85;;;1.90;;
78824;SDS011;68176;45.554;10.220;2024-03-08T12:20:20;4.75;;;2.72;;
78824;SDS011;68176;45.554;10.220;2024-03-08T12:22:56;4.03;;;2.72;;
78824;SDS011;68176;45.554;10.220;2024-03-08T12:25:25;4.05;;;2.00;;
78824;SDS011;68176;45.554;10.220;2024-03-08T12:27:56;3.90;;;2.58;;
78824;SDS011;68176;45.554;10.220;2024-03-08T12:30:25;1.20;;;0.30;;
78824;SDS011;68176;45.554;10.220;2024-03-08T12:32:59;3.70;;;2.65;;
78824;SDS011;68176;45.554;10.220;2024-03-08T12:35:26;2.00;;;1.20;;
78824;SDS011;68176;45.554;10.220;2024-03-08T12:37:54;3.70;;;2.35;;
78824;SDS011;68176;45.554;10.220;2024-03-08T12:40:29;2.95;;;1.92;;
78824;SDS011;68176;45.554;10.220;2024-03-08T12:42:56;3.00;;;2.45;;
78824;SDS011;68176;45.554;10.220;2024-03-08T12:45:23;3.38;;;2.50;;
78824;SDS011;68176;45.554;10.220;2024-03-08T12:47:52;5.45;;;3.28;;
78824;SDS011;68176;45.554;10.220;2024-03-08T12:50:22;4.38;;;2.83;;
78824;SDS011;68176;45.554;10.220;2024-03-08T12:52:52;4.55;;;3.08;;
78824;SDS011;68176;45.554;10.220;2024-03-08T12:57:52;3.90;;;3.15;;
78824;SDS011;68176;45.554;10.220;2024-03-08T13:02:52;15.15;;;5.43;;
78824;SDS011;68176;45.554;10.220;2024-03-08T13:05:22;9.32;;;6.25;;
78824;SDS011;68176;45.554;10.220;2024-03-08T13:07:52;15.50;;;6.55;;
78824;SDS011;68176;45.554;10.220;2024-03-08T13:10:22;11.25;;;7.32;;
78824;SDS011;68176;45.554;10.220;2024-03-08T13:12:52;9.57;;;5.47;;
78824;SDS011;68176;45.554;10.220;2024-03-08T13:15:22;11.63;;;6.03;;
78824;SDS011;68176;45.554;10.220;2024-03-08T13:17:52;11.52;;;6.25;;
78824;SDS011;68176;45.554;10.220;2024-03-08T13:20:22;9.65;;;5.53;;
78824;SDS011;68176;45.554;10.220;2024-03-08T13:22:52;7.85;;;6.03;;
78824;SDS011;68176;45.554;10.220;2024-03-08T13:25:22;11.00;;;5.53;;
78824;SDS011;68176;45.554;10.220;2024-03-08T13:27:52;7.55;;;6.03;;
78824;SDS011;68176;45.554;10.220;2024-03-08T13:30:22;6.47;;;4.28;;
78824;SDS011;68176;45.554;10.220;2024-03-08T13:32:52;8.55;;;5.05;;
78824;SDS011;68176;45.554;10.220;2024-03-08T13:35:22;11.10;;;5.75;;
78824;SDS011;68176;45.554;10.220;2024-03-08T13:37:52;10.85;;;5.63;;
78824;SDS011;68176;45.554;10.220;2024-03-08T13:40:22;10.90;;;5.70;;
78824;SDS011;68176;45.554;10.220;2024-03-08T13:42:53;10.45;;;5.43;;
78824;SDS011;68176;45.554;10.220;2024-03-08T13:45:22;8.85;;;6.28;;
78824;SDS011;68176;45.554;10.220;2024-03-08T13:47:56;8.20;;;5.60;;
78824;SDS011;68176;45.554;10.220;2024-03-08T13:50:22;7.70;;;5.28;;
78824;SDS011;68176;45.554;10.220;2024-03-08T13:52:52;10.32;;;5.57;;
78824;SDS011;68176;45.554;10.220;2024-03-08T13:55:23;8.23;;;4.97;;
78824;SDS011;68176;45.554;10.220;2024-03-08T13:57:53;6.97;;;5.00;;
78824;SDS011;68176;45.554;10.220;2024-03-08T14:00:22;6.63;;;4.93;;
78824;SDS011;68176;45.554;10.220;2024-03-08T14:02:53;7.73;;;5.17;;
78824;SDS011;68176;45.554;10.220;2024-03-08T14:05:22;7.38;;;4.65;;
78824;SDS011;68176;45.554;10.220;2024-03-08T14:07:52;7.03;;;4.80;;
78824;SDS011;68176;45.554;10.220;2024-03-08T14:10:22;7.90;;;5.13;;
78824;SDS011;68176;45.554;10.220;2024-03-08T14:12:52;6.72;;;4.53;;
78824;SDS011;68176;45.554;10.220;2024-03-08T14:15:23;7.97;;;5.20;;
78824;SDS011;68176;45.554;10.220;2024-03-08T14:17:53;8.52;;;4.53;;
78824;SDS011;68176;45.554;10.220;2024-03-08T14:20:23;6.60;;;5.30;;
78824;SDS011;68176;45.554;10.220;2024-03-08T14:22:53;9.00;;;4.85;;
78824;SDS011;68176;45.554;10.220;2024-03-08T14:25:23;9.70;;;5.50;;
78824;SDS011;68176;45.554;10.220;2024-03-08T14:27:53;5.18;;;3.95;;
78824;SDS011;68176;45.554;10.220;2024-03-08T14:30:23;7.65;;;4.97;;
78824;SDS011;68176;45.554;10.220;2024-03-08T14:33:01;5.60;;;4.35;;
78824;SDS011;68176;45.554;10.220;2024-03-08T14:35:27;4.10;;;3.55;;
78824;SDS011;68176;45.554;10.220;2024-03-08T14:37:54;3.80;;;3.30;;
78824;SDS011;68176;45.554;10.220;2024-03-08T14:40:23;7.85;;;4.45;;
78824;SDS011;68176;45.554;10.220;2024-03-08T14:42:53;7.82;;;4.25;;
78824;SDS011;68176;45.554;10.220;2024-03-08T14:45:23;9.90;;;5.70;;
78824;SDS011;68176;45.554;10.220;2024-03-08T14:47:53;6.95;;;3.97;;
78824;SDS011;68176;45.554;10.220;2024-03-08T14:50:23;5.53;;;4.05;;
78824;SDS011;68176;45.554;10.220;2024-03-08T14:52:53;5.75;;;4.70;;
78824;SDS011;68176;45.554;10.220;2024-03-08T14:55:23;6.63;;;3.85;;
78824;SDS011;68176;45.554;10.220;2024-03-08T14:57:53;5.55;;;4.32;;
78824;SDS011;68176;45.554;10.220;2024-03-08T15:00:23;6.10;;;4.05;;
78824;SDS011;68176;45.554;10.220;2024-03-08T15:03:00;7.20;;;4.37;;
78824;SDS011;68176;45.554;10.220;2024-03-08T15:05:27;4.50;;;3.05;;
78824;SDS011;68176;45.554;10.220;2024-03-08T15:07:54;4.88;;;3.30;;
78824;SDS011;68176;45.554;10.220;2024-03-08T15:10:24;6.63;;;4.22;;
78824;SDS011;68176;45.554;10.220;2024-03-08T15:12:54;6.55;;;3.97;;
78824;SDS011;68176;45.554;10.220;2024-03-08T15:15:24;9.02;;;3.85;;
78824;SDS011;68176;45.554;10.220;2024-03-08T15:17:54;6.43;;;4.55;;
78824;SDS011;68176;45.554;10.220;2024-03-08T15:20:24;4.85;;;3.63;;
78824;SDS011;68176;45.554;10.220;2024-03-08T15:22:55;5.72;;;3.58;;
78824;SDS011;68176;45.554;10.220;2024-03-08T15:25:24;4.93;;;4.00;;
78824;SDS011;68176;45.554;10.220;2024-03-08T15:27:54;8.95;;;6.00;;
78824;SDS011;68176;45.554;10.220;2024-03-08T15:30:24;6.97;;;5.45;;